sensor_id;sensor_type;location;lat;lon;timestamp;temperature;humidity
22607;DHT22;11470;20.968;105.834;2023-02-28T00:04:59;16.80;99.90
22607;DHT22;11470;20.968;105.834;2023-02-28T00:10:08;16.90;99.90
22607;DHT22;11470;20.968;105.834;2023-02-28T00:15:22;17.10;99.90
22607;DHT22;11470;20.968;105.834;2023-02-28T00:20:28;17.10;99.90
22607;DHT22;11470;20.968;105.834;2023-02-28T00:25:35;17.30;99.90
22607;DHT22;11470;20.968;105.834;2023-02-28T00:30:41;17.40;99.90
22607;DHT22;11470;20.968;105.834;2023-02-28T00:35:47;17.40;99.90
22607;DHT22;11470;20.968;105.834;2023-02-28T00:40:54;17.60;99.90
22607;DHT22;11470;20.968;105.834;2023-02-28T00:46:01;17.70;99.90
22607;DHT22;11470;20.968;105.834;2023-02-28T00:51:07;17.90;99.90
22607;DHT22;11470;20.968;105.834;2023-02-28T00:56:14;18.10;99.90
22607;DHT22;11470;20.968;105.834;2023-02-28T01:01:40;18.40;99.90
22607;DHT22;11470;20.968;105.834;2023-02-28T01:07:02;18.40;99.90
22607;DHT22;11470;20.968;105.834;2023-02-28T01:12:08;18.30;99.90
22607;DHT22;11470;20.968;105.834;2023-02-28T01:17:14;18.70;99.90
22607;DHT22;11470;20.968;105.834;2023-02-28T01:22:36;19.30;99.90
22607;DHT22;11470;20.968;105.834;2023-02-28T01:27:43;19.90;99.90
22607;DHT22;11470;20.968;105.834;2023-02-28T01:32:48;20.60;99.90
22607;DHT22;11470;20.968;105.834;2023-02-28T01:37:56;21.10;99.90
22607;DHT22;11470;20.968;105.834;2023-02-28T01:43:27;21.30;99.90
22607;DHT22;11470;20.968;105.834;2023-02-28T01:48:37;21.30;99.90
22607;DHT22;11470;20.968;105.834;2023-02-28T01:53:49;21.70;99.90
22607;DHT22;11470;20.968;105.834;2023-02-28T01:59:00;22.10;99.90
22607;DHT22;11470;20.968;105.834;2023-02-28T02:04:06;21.30;99.90
22607;DHT22;11470;20.968;105.834;2023-02-28T02:09:12;20.90;99.90
22607;DHT22;11470;20.968;105.834;2023-02-28T02:14:40;21.20;99.90
22607;DHT22;11470;20.968;105.834;2023-02-28T02:36:17;22.00;98.00
22607;DHT22;11470;20.968;105.834;2023-02-28T02:41:48;22.70;94.40
22607;DHT22;11470;20.968;105.834;2023-02-28T02:47:15;23.10;92.60
22607;DHT22;11470;20.968;105.834;2023-02-28T02:52:29;23.10;92.00
22607;DHT22;11470;20.968;105.834;2023-02-28T02:58:00;23.30;91.70
22607;DHT22;11470;20.968;105.834;2023-02-28T03:03:09;23.80;91.00
22607;DHT22;11470;20.968;105.834;2023-02-28T03:08:20;23.70;91.80
22607;DHT22;11470;20.968;105.834;2023-02-28T03:29:51;25.10;83.80
22607;DHT22;11470;20.968;105.834;2023-02-28T03:35:06;24.60;83.80
22607;DHT22;11470;20.968;105.834;2023-02-28T03:40:26;24.50;86.10
22607;DHT22;11470;20.968;105.834;2023-02-28T03:45:37;24.40;86.10
22607;DHT22;11470;20.968;105.834;2023-02-28T03:50:47;24.50;86.40
22607;DHT22;11470;20.968;105.834;2023-02-28T04:01:40;23.80;86.90
22607;DHT22;11470;20.968;105.834;2023-02-28T04:06:51;23.30;89.10
22607;DHT22;11470;20.968;105.834;2023-02-28T04:11:59;22.80;90.70
22607;DHT22;11470;20.968;105.834;2023-02-28T04:17:05;22.90;91.10
22607;DHT22;11470;20.968;105.834;2023-02-28T04:22:12;22.90;91.00
22607;DHT22;11470;20.968;105.834;2023-02-28T04:27:27;23.10;91.30
22607;DHT22;11470;20.968;105.834;2023-02-28T04:32:35;23.50;90.50
22607;DHT22;11470;20.968;105.834;2023-02-28T04:37:44;23.90;89.20
22607;DHT22;11470;20.968;105.834;2023-02-28T04:42:53;23.80;89.30
22607;DHT22;11470;20.968;105.834;2023-02-28T04:47:59;24.30;87.00
22607;DHT22;11470;20.968;105.834;2023-02-28T04:53:06;24.60;85.80
22607;DHT22;11470;20.968;105.834;2023-02-28T04:58:13;24.50;82.40
22607;DHT22;11470;20.968;105.834;2023-02-28T05:03:21;24.30;86.10
22607;DHT22;11470;20.968;105.834;2023-02-28T05:08:32;24.30;86.50
22607;DHT22;11470;20.968;105.834;2023-02-28T05:13:37;24.50;85.70
22607;DHT22;11470;20.968;105.834;2023-02-28T05:18:46;24.70;84.80
22607;DHT22;11470;20.968;105.834;2023-02-28T05:29:57;24.80;83.10
22607;DHT22;11470;20.968;105.834;2023-02-28T05:35:05;24.70;84.10
22607;DHT22;11470;20.968;105.834;2023-02-28T05:40:14;24.60;85.20
22607;DHT22;11470;20.968;105.834;2023-02-28T05:45:21;24.70;85.70
22607;DHT22;11470;20.968;105.834;2023-02-28T05:50:30;27.60;78.10
22607;DHT22;11470;20.968;105.834;2023-02-28T05:55:39;30.40;66.30
22607;DHT22;11470;20.968;105.834;2023-02-28T06:00:46;30.50;63.40
22607;DHT22;11470;20.968;105.834;2023-02-28T06:05:54;29.50;65.50
22607;DHT22;11470;20.968;105.834;2023-02-28T06:11:04;30.10;63.50
22607;DHT22;11470;20.968;105.834;2023-02-28T06:16:12;29.80;63.80
22607;DHT22;11470;20.968;105.834;2023-02-28T06:21:19;31.30;61.50
22607;DHT22;11470;20.968;105.834;2023-02-28T06:26:29;30.10;62.80
22607;DHT22;11470;20.968;105.834;2023-02-28T06:32:12;28.60;66.10
22607;DHT22;11470;20.968;105.834;2023-02-28T06:37:19;29.00;67.20
22607;DHT22;11470;20.968;105.834;2023-02-28T06:42:26;28.40;69.20
22607;DHT22;11470;20.968;105.834;2023-02-28T06:47:35;29.40;67.80
22607;DHT22;11470;20.968;105.834;2023-02-28T06:52:41;31.20;60.10
22607;DHT22;11470;20.968;105.834;2023-02-28T06:57:48;32.00;60.20
22607;DHT22;11470;20.968;105.834;2023-02-28T07:02:55;33.50;57.60
22607;DHT22;11470;20.968;105.834;2023-02-28T07:08:04;34.20;54.50
22607;DHT22;11470;20.968;105.834;2023-02-28T07:13:11;30.30;59.30
22607;DHT22;11470;20.968;105.834;2023-02-28T07:18:17;30.30;63.00
22607;DHT22;11470;20.968;105.834;2023-02-28T07:23:43;31.70;57.40
22607;DHT22;11470;20.968;105.834;2023-02-28T07:29:06;32.40;55.90
22607;DHT22;11470;20.968;105.834;2023-02-28T07:34:15;31.00;59.40
22607;DHT22;11470;20.968;105.834;2023-02-28T07:39:22;31.60;60.80
22607;DHT22;11470;20.968;105.834;2023-02-28T07:44:28;32.10;59.10
22607;DHT22;11470;20.968;105.834;2023-02-28T07:49:41;32.60;56.10
22607;DHT22;11470;20.968;105.834;2023-02-28T07:54:47;31.20;57.10
22607;DHT22;11470;20.968;105.834;2023-02-28T08:00:11;29.30;59.40
22607;DHT22;11470;20.968;105.834;2023-02-28T08:05:28;29.20;65.10
22607;DHT22;11470;20.968;105.834;2023-02-28T08:10:38;29.40;62.60
22607;DHT22;11470;20.968;105.834;2023-02-28T08:16:05;29.20;61.80
22607;DHT22;11470;20.968;105.834;2023-02-28T08:21:12;27.90;64.60
22607;DHT22;11470;20.968;105.834;2023-02-28T08:26:20;26.70;67.70
22607;DHT22;11470;20.968;105.834;2023-02-28T08:31:27;26.50;69.30
22607;DHT22;11470;20.968;105.834;2023-02-28T08:36:33;26.00;69.70
22607;DHT22;11470;20.968;105.834;2023-02-28T08:41:41;25.70;71.30
22607;DHT22;11470;20.968;105.834;2023-02-28T08:46:50;25.40;72.90
22607;DHT22;11470;20.968;105.834;2023-02-28T08:51:58;25.50;73.20
22607;DHT22;11470;20.968;105.834;2023-02-28T08:57:04;25.30;74.10
22607;DHT22;11470;20.968;105.834;2023-02-28T09:02:13;25.20;74.90
22607;DHT22;11470;20.968;105.834;2023-02-28T09:07:19;25.20;75.80
22607;DHT22;11470;20.968;105.834;2023-02-28T09:12:27;25.10;75.30
22607;DHT22;11470;20.968;105.834;2023-02-28T09:17:33;25.00;76.70
22607;DHT22;11470;20.968;105.834;2023-02-28T09:22:40;24.70;78.20
22607;DHT22;11470;20.968;105.834;2023-02-28T09:27:46;24.40;78.70
22607;DHT22;11470;20.968;105.834;2023-02-28T09:32:54;24.30;81.10
22607;DHT22;11470;20.968;105.834;2023-02-28T09:38:00;24.10;82.60
22607;DHT22;11470;20.968;105.834;2023-02-28T09:43:14;23.90;83.00
22607;DHT22;11470;20.968;105.834;2023-02-28T09:48:23;23.70;85.30
22607;DHT22;11470;20.968;105.834;2023-02-28T09:53:37;23.50;86.20
22607;DHT22;11470;20.968;105.834;2023-02-28T10:09:32;23.00;90.30
22607;DHT22;11470;20.968;105.834;2023-02-28T10:14:45;22.90;91.10
22607;DHT22;11470;20.968;105.834;2023-02-28T10:20:22;22.70;90.90
22607;DHT22;11470;20.968;105.834;2023-02-28T10:25:38;22.40;92.40
22607;DHT22;11470;20.968;105.834;2023-02-28T10:30:52;22.30;93.40
22607;DHT22;11470;20.968;105.834;2023-02-28T10:35:59;22.20;94.30
22607;DHT22;11470;20.968;105.834;2023-02-28T10:41:11;21.90;94.20
22607;DHT22;11470;20.968;105.834;2023-02-28T10:46:20;21.80;96.40
22607;DHT22;11470;20.968;105.834;2023-02-28T10:51:39;21.60;98.70
22607;DHT22;11470;20.968;105.834;2023-02-28T10:57:11;21.40;99.60
22607;DHT22;11470;20.968;105.834;2023-02-28T11:02:32;21.30;99.90
22607;DHT22;11470;20.968;105.834;2023-02-28T11:07:40;21.10;99.90
22607;DHT22;11470;20.968;105.834;2023-02-28T11:12:59;21.00;99.90
22607;DHT22;11470;20.968;105.834;2023-02-28T11:18:56;20.90;99.90
22607;DHT22;11470;20.968;105.834;2023-02-28T11:24:20;20.80;99.90
22607;DHT22;11470;20.968;105.834;2023-02-28T11:29:33;20.70;99.90
22607;DHT22;11470;20.968;105.834;2023-02-28T11:34:44;20.60;99.90
22607;DHT22;11470;20.968;105.834;2023-02-28T11:39:51;20.50;99.90
22607;DHT22;11470;20.968;105.834;2023-02-28T11:55:59;20.30;99.90
22607;DHT22;11470;20.968;105.834;2023-02-28T12:01:36;20.20;99.90
22607;DHT22;11470;20.968;105.834;2023-02-28T12:06:57;20.20;99.90
22607;DHT22;11470;20.968;105.834;2023-02-28T12:18:32;20.10;99.90
22607;DHT22;11470;20.968;105.834;2023-02-28T12:29:34;20.00;99.90
22607;DHT22;11470;20.968;105.834;2023-02-28T12:36:10;20.00;99.90
22607;DHT22;11470;20.968;105.834;2023-02-28T12:41:22;19.90;99.90
22607;DHT22;11470;20.968;105.834;2023-02-28T12:46:38;19.90;99.90
22607;DHT22;11470;20.968;105.834;2023-02-28T12:51:52;20.00;99.90
22607;DHT22;11470;20.968;105.834;2023-02-28T12:57:38;19.90;99.90
22607;DHT22;11470;20.968;105.834;2023-02-28T13:03:03;19.80;99.90
22607;DHT22;11470;20.968;105.834;2023-02-28T13:13:46;19.70;99.90
22607;DHT22;11470;20.968;105.834;2023-02-28T13:19:09;19.80;99.90
22607;DHT22;11470;20.968;105.834;2023-02-28T13:24:48;19.70;99.90
22607;DHT22;11470;20.968;105.834;2023-02-28T13:29:57;19.70;99.90
22607;DHT22;11470;20.968;105.834;2023-02-28T13:40:35;19.50;99.90
22607;DHT22;11470;20.968;105.834;2023-02-28T13:46:08;19.60;99.90
22607;DHT22;11470;20.968;105.834;2023-02-28T14:07:50;19.20;99.90
22607;DHT22;11470;20.968;105.834;2023-02-28T14:13:36;19.30;99.90
22607;DHT22;11470;20.968;105.834;2023-02-28T14:19:12;19.10;99.90
22607;DHT22;11470;20.968;105.834;2023-02-28T14:45:37;18.80;99.90
22607;DHT22;11470;20.968;105.834;2023-02-28T14:50:58;18.70;99.90
22607;DHT22;11470;20.968;105.834;2023-02-28T14:56:17;18.70;99.90
22607;DHT22;11470;20.968;105.834;2023-02-28T15:01:26;18.70;99.90
22607;DHT22;11470;20.968;105.834;2023-02-28T15:06:34;18.60;99.90
22607;DHT22;11470;20.968;105.834;2023-02-28T15:11:40;18.70;99.90
22607;DHT22;11470;20.968;105.834;2023-02-28T15:17:02;18.50;99.90
22607;DHT22;11470;20.968;105.834;2023-02-28T15:22:18;18.40;99.90
22607;DHT22;11470;20.968;105.834;2023-02-28T15:27:32;18.30;99.90
22607;DHT22;11470;20.968;105.834;2023-02-28T15:32:39;18.30;99.90
22607;DHT22;11470;20.968;105.834;2023-02-28T15:38:03;18.40;99.90
22607;DHT22;11470;20.968;105.834;2023-02-28T15:43:18;18.30;99.90
22607;DHT22;11470;20.968;105.834;2023-02-28T15:48:53;18.30;99.90
22607;DHT22;11470;20.968;105.834;2023-02-28T15:54:24;18.10;99.90
22607;DHT22;11470;20.968;105.834;2023-02-28T15:59:33;18.00;99.90
22607;DHT22;11470;20.968;105.834;2023-02-28T16:10:08;18.00;99.90
22607;DHT22;11470;20.968;105.834;2023-02-28T16:15:22;18.00;99.90
22607;DHT22;11470;20.968;105.834;2023-02-28T16:20:30;17.90;99.90
22607;DHT22;11470;20.968;105.834;2023-02-28T16:25:42;17.90;99.90
22607;DHT22;11470;20.968;105.834;2023-02-28T16:30:52;17.80;99.90
22607;DHT22;11470;20.968;105.834;2023-02-28T16:36:00;17.80;99.90
22607;DHT22;11470;20.968;105.834;2023-02-28T16:41:07;17.70;99.90
22607;DHT22;11470;20.968;105.834;2023-02-28T16:46:16;17.70;99.90
22607;DHT22;11470;20.968;105.834;2023-02-28T16:51:23;17.80;99.90
22607;DHT22;11470;20.968;105.834;2023-02-28T16:56:31;17.80;99.90
22607;DHT22;11470;20.968;105.834;2023-02-28T17:01:39;17.80;99.90
22607;DHT22;11470;20.968;105.834;2023-02-28T17:06:45;17.90;99.90
22607;DHT22;11470;20.968;105.834;2023-02-28T17:11:51;17.90;99.90
22607;DHT22;11470;20.968;105.834;2023-02-28T17:16:58;17.90;99.90
22607;DHT22;11470;20.968;105.834;2023-02-28T17:22:04;17.90;99.90
22607;DHT22;11470;20.968;105.834;2023-02-28T17:27:11;17.90;99.90
22607;DHT22;11470;20.968;105.834;2023-02-28T17:32:18;17.90;99.90
22607;DHT22;11470;20.968;105.834;2023-02-28T17:37:25;17.80;99.90
22607;DHT22;11470;20.968;105.834;2023-02-28T17:42:32;17.80;99.90
22607;DHT22;11470;20.968;105.834;2023-02-28T17:47:37;17.80;99.90
22607;DHT22;11470;20.968;105.834;2023-02-28T17:52:44;17.80;99.90
22607;DHT22;11470;20.968;105.834;2023-02-28T17:57:51;17.80;99.90
22607;DHT22;11470;20.968;105.834;2023-02-28T18:02:57;17.80;99.90
22607;DHT22;11470;20.968;105.834;2023-02-28T18:08:03;17.70;99.90
22607;DHT22;11470;20.968;105.834;2023-02-28T18:13:09;17.70;99.90
22607;DHT22;11470;20.968;105.834;2023-02-28T18:18:17;17.60;99.90
22607;DHT22;11470;20.968;105.834;2023-02-28T18:23:24;17.60;99.90
22607;DHT22;11470;20.968;105.834;2023-02-28T18:28:30;17.60;99.90
22607;DHT22;11470;20.968;105.834;2023-02-28T18:33:39;17.60;99.90
22607;DHT22;11470;20.968;105.834;2023-02-28T18:38:45;17.60;99.90
22607;DHT22;11470;20.968;105.834;2023-02-28T18:43:51;17.60;99.90
22607;DHT22;11470;20.968;105.834;2023-02-28T18:48:59;17.60;99.90
22607;DHT22;11470;20.968;105.834;2023-02-28T18:54:06;17.60;99.90
22607;DHT22;11470;20.968;105.834;2023-02-28T18:59:12;17.60;99.90
22607;DHT22;11470;20.968;105.834;2023-02-28T19:04:19;17.50;99.90
22607;DHT22;11470;20.968;105.834;2023-02-28T19:09:25;17.50;99.90
22607;DHT22;11470;20.968;105.834;2023-02-28T19:14:33;17.40;99.90
22607;DHT22;11470;20.968;105.834;2023-02-28T19:19:39;17.30;99.90
22607;DHT22;11470;20.968;105.834;2023-02-28T19:24:45;17.30;99.90
22607;DHT22;11470;20.968;105.834;2023-02-28T19:29:54;17.20;99.90
22607;DHT22;11470;20.968;105.834;2023-02-28T19:35:03;17.20;99.90
22607;DHT22;11470;20.968;105.834;2023-02-28T19:40:11;17.20;99.90
22607;DHT22;11470;20.968;105.834;2023-02-28T19:45:18;17.30;99.90
22607;DHT22;11470;20.968;105.834;2023-02-28T19:50:24;17.40;99.90
22607;DHT22;11470;20.968;105.834;2023-02-28T19:55:30;17.50;99.90
22607;DHT22;11470;20.968;105.834;2023-02-28T20:00:37;17.60;99.90
22607;DHT22;11470;20.968;105.834;2023-02-28T20:05:44;17.70;99.90
22607;DHT22;11470;20.968;105.834;2023-02-28T20:10:51;17.70;99.90
22607;DHT22;11470;20.968;105.834;2023-02-28T20:16:02;17.60;99.90
22607;DHT22;11470;20.968;105.834;2023-02-28T20:21:12;17.40;99.90
22607;DHT22;11470;20.968;105.834;2023-02-28T20:26:18;17.40;99.90
22607;DHT22;11470;20.968;105.834;2023-02-28T20:31:25;17.40;99.90
22607;DHT22;11470;20.968;105.834;2023-02-28T20:36:32;17.40;99.90
22607;DHT22;11470;20.968;105.834;2023-02-28T20:41:39;17.20;99.90
22607;DHT22;11470;20.968;105.834;2023-02-28T20:46:45;17.10;99.90
22607;DHT22;11470;20.968;105.834;2023-02-28T20:51:51;17.10;99.90
22607;DHT22;11470;20.968;105.834;2023-02-28T20:56:57;17.00;99.90
22607;DHT22;11470;20.968;105.834;2023-02-28T21:02:03;17.10;99.90
22607;DHT22;11470;20.968;105.834;2023-02-28T21:07:09;17.00;99.90
22607;DHT22;11470;20.968;105.834;2023-02-28T21:12:15;17.00;99.90
22607;DHT22;11470;20.968;105.834;2023-02-28T21:17:22;17.00;99.90
22607;DHT22;11470;20.968;105.834;2023-02-28T21:22:28;17.00;99.90
22607;DHT22;11470;20.968;105.834;2023-02-28T21:27:34;17.00;99.90
22607;DHT22;11470;20.968;105.834;2023-02-28T21:32:40;17.00;99.90
22607;DHT22;11470;20.968;105.834;2023-02-28T21:37:46;17.00;99.90
22607;DHT22;11470;20.968;105.834;2023-02-28T21:42:52;17.10;99.90
22607;DHT22;11470;20.968;105.834;2023-02-28T21:48:00;17.00;99.90
22607;DHT22;11470;20.968;105.834;2023-02-28T21:53:07;17.00;99.90
22607;DHT22;11470;20.968;105.834;2023-02-28T21:58:13;16.90;99.90
22607;DHT22;11470;20.968;105.834;2023-02-28T22:03:20;17.00;99.90
22607;DHT22;11470;20.968;105.834;2023-02-28T22:08:26;17.00;99.90
22607;DHT22;11470;20.968;105.834;2023-02-28T22:13:34;17.20;99.90
22607;DHT22;11470;20.968;105.834;2023-02-28T22:18:40;17.20;99.90
22607;DHT22;11470;20.968;105.834;2023-02-28T22:23:47;17.20;99.90
22607;DHT22;11470;20.968;105.834;2023-02-28T22:28:54;17.20;99.90
22607;DHT22;11470;20.968;105.834;2023-02-28T22:34:06;17.20;99.90
22607;DHT22;11470;20.968;105.834;2023-02-28T22:39:13;17.20;99.90
22607;DHT22;11470;20.968;105.834;2023-02-28T22:44:19;17.20;99.90
22607;DHT22;11470;20.968;105.834;2023-02-28T22:49:27;17.30;99.90
22607;DHT22;11470;20.968;105.834;2023-02-28T22:54:33;17.30;99.90
22607;DHT22;11470;20.968;105.834;2023-02-28T22:59:40;17.40;99.90
22607;DHT22;11470;20.968;105.834;2023-02-28T23:04:46;17.50;99.90
22607;DHT22;11470;20.968;105.834;2023-02-28T23:09:52;17.60;99.90
22607;DHT22;11470;20.968;105.834;2023-02-28T23:14:59;17.70;99.90
22607;DHT22;11470;20.968;105.834;2023-02-28T23:20:06;17.80;99.90
22607;DHT22;11470;20.968;105.834;2023-02-28T23:25:13;17.80;99.90
22607;DHT22;11470;20.968;105.834;2023-02-28T23:30:19;17.90;99.90
22607;DHT22;11470;20.968;105.834;2023-02-28T23:35:25;17.90;99.90
22607;DHT22;11470;20.968;105.834;2023-02-28T23:40:32;17.90;99.90
22607;DHT22;11470;20.968;105.834;2023-02-28T23:45:38;17.70;99.90
22607;DHT22;11470;20.968;105.834;2023-02-28T23:50:47;17.80;99.90
22607;DHT22;11470;20.968;105.834;2023-02-28T23:55:53;17.70;99.90
